Fox, Montana
Current Conditions -  °F | °C
As of 6:15 AM on Sunday 21 Dec 2014 (Local Time) from KPOY Reporting Station
Scattered Clouds Scattered Clouds  
Wind Chill: 28°   Ceiling: Unl
Heat Index: 37°   Visibility: 10mi
Dew Point: 27°   Wind: 17mph
Humidity: 65%   Direction: 230°SW
Pressure: 29.48"   Gusts: 26mph
Location:  45.3755°N, 109.216°W
Report Text: KPOY 211315Z AUTO 23015G23KT 10SM SCT090 03/M03 A2948 RMK AO2
Loading
Personal Weather Stations






























Interactive Weather Map New forecast layout! Learn more

10-Day Weather Forecast

Advertisements
Track Severe Weather on mobile